createdAt,value
2022-10-11T00:03:40.613Z,6.53
2022-10-11T00:08:34.614Z,7.30
2022-10-11T00:13:27.321Z,6.57
2022-10-11T00:18:19.845Z,6.80
2022-10-11T00:23:12.411Z,6.60
2022-10-11T00:28:06.827Z,7.60
2022-10-11T00:32:59.353Z,7.77
2022-10-11T00:37:51.917Z,7.93
2022-10-11T00:42:44.615Z,7.53
2022-10-11T00:47:38.429Z,8.30
2022-10-11T00:52:32.272Z,8.30
2022-10-11T00:57:26.152Z,8.83
2022-10-11T01:02:19.300Z,7.77
2022-10-11T01:07:14.280Z,8.17
2022-10-11T01:12:12.031Z,7.53
2022-10-11T01:17:08.245Z,8.70
2022-10-11T01:22:05.925Z,8.83
2022-10-11T01:27:14.402Z,9.10
2022-10-11T01:32:13.583Z,8.40
2022-10-11T01:37:09.496Z,8.30
2022-10-11T01:42:04.024Z,7.40
2022-10-11T01:46:56.952Z,7.53
2022-10-11T01:51:53.164Z,8.67
2022-10-11T01:56:52.535Z,7.57
2022-10-11T02:01:53.849Z,8.10
2022-10-11T02:06:49.965Z,7.20
2022-10-11T02:11:43.869Z,7.40
2022-10-11T02:16:39.969Z,7.57
2022-10-11T02:21:34.392Z,7.63
2022-10-11T02:26:28.792Z,8.47
2022-10-11T02:31:23.127Z,8.57
2022-10-11T02:36:18.179Z,9.03
2022-10-11T02:41:14.348Z,8.37
2022-10-11T02:46:08.565Z,8.37
2022-10-11T02:51:03.325Z,8.37
2022-10-11T02:55:56.062Z,8.00
2022-10-11T03:00:48.609Z,7.70
2022-10-11T03:05:41.562Z,8.00
2022-10-11T03:10:35.418Z,7.50
2022-10-11T03:15:27.888Z,7.40
2022-10-11T03:20:20.361Z,7.60
2022-10-11T03:25:12.906Z,8.37
2022-10-11T03:30:08.788Z,8.57
2022-10-11T03:35:01.655Z,9.70
2022-10-11T03:39:54.148Z,8.80
2022-10-11T03:44:49.479Z,10.40
2022-10-11T03:49:43.906Z,9.00
2022-10-11T03:54:36.477Z,10.30
2022-10-11T03:59:29.016Z,9.90
2022-10-11T04:04:21.559Z,10.50
2022-10-11T04:09:15.618Z,11.30
2022-10-11T04:14:08.100Z,11.30
2022-10-11T04:19:00.580Z,11.40
2022-10-11T04:23:53.030Z,13.03
2022-10-11T04:28:47.025Z,12.37
2022-10-11T04:33:39.570Z,13.23
2022-10-11T04:38:32.143Z,15.00
2022-10-11T04:43:24.603Z,15.20
2022-10-11T04:48:18.438Z,15.83
2022-10-11T04:53:10.884Z,15.67
2022-10-11T04:58:03.339Z,16.83
2022-10-11T05:02:55.806Z,16.67
2022-10-11T05:07:49.658Z,17.80
2022-10-11T05:12:42.154Z,18.17
2022-10-11T05:17:34.917Z,17.90
2022-10-11T05:22:27.404Z,19.40
2022-10-11T05:27:21.263Z,19.40
2022-10-11T05:32:13.744Z,20.83
2022-10-11T05:37:06.264Z,20.53
2022-10-11T05:41:58.736Z,22.40
2022-10-11T05:46:52.656Z,22.87
2022-10-11T05:51:45.137Z,24.90
2022-10-11T05:56:37.618Z,25.70
2022-10-11T06:01:30.205Z,25.33
2022-10-11T06:06:24.729Z,27.23
2022-10-11T06:11:17.889Z,27.40
2022-10-11T06:16:10.372Z,30.10
2022-10-11T06:21:03.118Z,28.80
2022-10-11T06:26:00.390Z,29.73
2022-10-11T06:30:52.874Z,30.73
2022-10-11T06:35:45.335Z,28.87
2022-10-11T06:40:37.848Z,31.90
2022-10-11T06:45:31.702Z,26.50
2022-10-11T06:50:47.152Z,30.10
2022-10-11T06:55:36.921Z,30.57
2022-10-11T07:00:29.436Z,29.83
2022-10-11T07:05:23.303Z,30.40
2022-10-11T07:10:15.944Z,31.63
2022-10-11T07:15:10.197Z,30.33
2022-10-11T07:20:03.130Z,31.30
2022-10-11T07:24:56.953Z,29.00
2022-10-11T07:29:49.421Z,28.23
2022-10-11T07:34:41.914Z,28.10
2022-10-11T07:39:34.605Z,27.90
2022-10-11T07:44:28.494Z,27.10
2022-10-11T07:49:21.018Z,26.57
2022-10-11T07:54:13.479Z,24.50
2022-10-11T07:59:06.310Z,25.17
2022-10-11T08:04:00.262Z,24.10
2022-10-11T08:08:52.745Z,23.03
2022-10-11T08:13:45.377Z,20.60
2022-10-11T08:18:37.834Z,21.80
2022-10-11T08:23:31.631Z,16.00
2022-10-11T08:28:24.104Z,16.00
2022-10-11T08:33:16.994Z,16.17
2022-10-11T08:38:09.519Z,15.30
2022-10-11T08:43:04.796Z,15.40
2022-10-11T08:48:02.561Z,12.00
2022-10-11T08:52:57.198Z,9.43
2022-10-11T08:57:52.150Z,8.40
2022-10-11T09:03:07.387Z,8.77
2022-10-11T09:08:06.281Z,8.00
2022-10-11T09:13:02.553Z,7.97
2022-10-11T09:18:13.020Z,7.27
2022-10-11T09:23:12.240Z,7.37
2022-10-11T09:28:13.335Z,7.00
2022-10-11T09:33:11.854Z,6.13
2022-10-11T09:38:06.891Z,6.80
2022-10-11T09:43:00.763Z,6.77
2022-10-11T09:47:54.507Z,6.30
2022-10-11T09:52:50.785Z,6.50
2022-10-11T09:57:43.366Z,6.87
2022-10-11T10:02:41.902Z,6.70
2022-10-11T10:07:35.232Z,6.97
2022-10-11T10:12:28.760Z,7.30
2022-10-11T10:17:21.332Z,7.33
2022-10-11T10:22:19.650Z,6.70
2022-10-11T10:27:21.030Z,6.63
2022-10-11T10:32:15.504Z,6.50
2022-10-11T10:37:10.492Z,6.10
2022-10-11T10:42:05.971Z,6.47
2022-10-11T10:47:02.372Z,6.30
2022-10-11T10:52:03.073Z,6.27
2022-10-11T10:56:57.070Z,6.37
2022-10-11T11:01:56.704Z,5.60
2022-10-11T11:06:50.802Z,5.43
2022-10-11T11:11:52.376Z,5.63
2022-10-11T11:16:49.590Z,5.90
2022-10-11T11:21:47.588Z,5.90
2022-10-11T11:26:44.465Z,5.90
2022-10-11T11:31:43.136Z,6.70
2022-10-11T11:36:41.478Z,6.10
2022-10-11T11:41:37.490Z,6.50
2022-10-11T11:46:31.276Z,6.37
2022-10-11T11:51:27.804Z,7.67
2022-10-11T11:56:27.834Z,6.00
2022-10-11T12:01:30.929Z,6.47
2022-10-11T12:06:24.943Z,6.30
2022-10-11T12:11:21.573Z,6.83
2022-10-11T12:16:14.752Z,6.53
2022-10-11T12:21:17.569Z,6.87
2022-10-11T12:26:31.959Z,7.70
2022-10-11T12:31:25.637Z,6.90
2022-10-11T12:36:34.036Z,8.00
2022-10-11T12:41:49.743Z,7.50
2022-10-11T12:46:45.265Z,8.33
2022-10-11T12:51:41.894Z,8.37
2022-10-11T12:56:42.641Z,7.57
2022-10-11T13:01:36.541Z,7.00
2022-10-11T13:06:30.828Z,7.43
2022-10-11T13:11:25.901Z,7.50
2022-10-11T13:16:20.084Z,8.23
2022-10-11T13:21:23.105Z,8.87
2022-10-11T13:26:16.654Z,8.07
2022-10-11T13:31:10.557Z,8.30
2022-10-11T13:36:05.324Z,8.87
2022-10-11T13:40:59.227Z,8.63
2022-10-11T13:45:53.648Z,9.03
2022-10-11T13:51:05.508Z,8.10
2022-10-11T13:55:58.896Z,9.20
2022-10-11T14:00:55.281Z,8.57
2022-10-11T14:05:55.296Z,9.67
2022-10-11T14:10:50.662Z,8.63
2022-10-11T14:15:45.489Z,8.33
2022-10-11T14:20:39.191Z,7.93
2022-10-11T14:25:33.541Z,8.40
2022-10-11T14:30:27.775Z,9.10
2022-10-11T14:35:22.640Z,8.40
2022-10-11T14:40:17.148Z,8.60
2022-10-11T14:45:11.949Z,9.07
2022-10-11T14:50:13.655Z,9.23
2022-10-11T14:55:06.340Z,9.30
2022-10-11T14:59:58.947Z,9.73
2022-10-11T15:04:52.904Z,8.77
2022-10-11T15:09:45.758Z,8.97
2022-10-11T15:14:38.284Z,8.70
2022-10-11T15:19:30.823Z,8.90
2022-10-11T15:24:24.707Z,8.50
2022-10-11T15:29:18.877Z,9.33
2022-10-11T15:34:12.290Z,9.67
2022-10-11T15:39:05.110Z,8.70
2022-10-11T15:43:58.956Z,9.30
2022-10-11T15:48:52.819Z,11.00
2022-10-11T15:53:45.812Z,12.20
2022-10-11T15:58:40.135Z,11.03
2022-10-11T16:03:34.285Z,11.33
2022-10-11T16:08:26.925Z,10.50
2022-10-11T16:13:19.498Z,12.67
2022-10-11T16:18:13.295Z,12.60
2022-10-11T16:23:07.189Z,11.40
2022-10-11T16:27:59.963Z,11.70
2022-10-11T16:32:52.510Z,16.07
2022-10-11T16:37:45.410Z,22.30
2022-10-11T16:42:40.157Z,12.00
2022-10-11T16:47:32.877Z,13.37
2022-10-11T16:52:25.472Z,13.93
2022-10-11T16:57:19.827Z,13.60
2022-10-11T17:02:16.081Z,16.00
2022-10-11T17:07:12.219Z,17.93
2022-10-11T17:12:04.796Z,15.40
2022-10-11T17:16:57.363Z,14.53
2022-10-11T17:21:51.242Z,13.20
2022-10-11T17:26:43.825Z,13.60
2022-10-11T17:31:38.399Z,12.93
2022-10-11T17:36:33.981Z,13.00
2022-10-11T17:41:31.872Z,12.90
2022-10-11T17:46:25.792Z,11.50
2022-10-11T17:51:19.426Z,13.20
2022-10-11T17:56:13.791Z,13.03
2022-10-11T18:01:09.886Z,13.60
2022-10-11T18:06:03.662Z,11.90
2022-10-11T18:10:56.215Z,13.90
2022-10-11T18:15:53.378Z,12.83
2022-10-11T18:20:48.957Z,12.80
2022-10-11T18:25:41.497Z,14.33
2022-10-11T18:30:34.030Z,15.23
2022-10-11T18:35:26.542Z,13.93
2022-10-11T18:40:20.483Z,15.80
2022-10-11T18:45:13.103Z,19.73
2022-10-11T18:50:05.984Z,16.87
2022-10-11T18:54:58.667Z,14.23
2022-10-11T18:59:53.546Z,14.00
2022-10-11T19:04:52.371Z,13.10
2022-10-11T19:09:44.916Z,13.10
2022-10-11T19:14:37.533Z,9.93
2022-10-11T19:19:32.772Z,8.93
2022-10-11T19:24:26.561Z,9.50
2022-10-11T19:29:20.136Z,7.20
2022-10-11T19:34:12.908Z,6.60
2022-10-11T19:39:06.800Z,7.30
2022-10-11T19:43:59.320Z,7.20
2022-10-11T19:48:52.513Z,6.50
2022-10-11T19:53:45.886Z,5.60
2022-10-11T19:58:40.336Z,5.50
2022-10-11T20:03:33.152Z,5.00
2022-10-11T20:08:25.633Z,4.40
2022-10-11T20:13:18.178Z,7.30
2022-10-11T20:18:12.015Z,5.40
2022-10-11T20:23:04.634Z,7.47
2022-10-11T20:27:57.164Z,5.80
2022-10-11T20:32:49.734Z,6.60
2022-10-11T20:37:43.599Z,6.17
2022-10-11T20:42:36.064Z,7.40
2022-10-11T20:47:28.555Z,6.47
2022-10-11T20:52:21.100Z,6.20
2022-10-11T20:57:14.960Z,5.53
2022-10-11T21:02:07.952Z,5.60
2022-10-11T21:07:00.473Z,5.90
2022-10-11T21:11:53.075Z,6.07
2022-10-11T21:16:46.973Z,6.40
2022-10-11T21:21:39.456Z,6.00
2022-10-11T21:26:32.142Z,5.80
2022-10-11T21:31:25.903Z,5.70
2022-10-11T21:36:23.124Z,5.87
2022-10-11T21:41:16.240Z,4.83
2022-10-11T21:46:09.650Z,5.20
2022-10-11T21:51:02.253Z,4.40
2022-10-11T21:55:58.623Z,5.10
2022-10-11T22:00:51.114Z,5.27
2022-10-11T22:05:44.169Z,5.47
2022-10-11T22:10:36.722Z,5.20
2022-10-11T22:15:33.689Z,5.67
2022-10-11T22:20:26.241Z,5.60
2022-10-11T22:25:18.855Z,5.80
2022-10-11T22:30:11.746Z,5.70
2022-10-11T22:35:06.072Z,5.60
2022-10-11T22:39:58.616Z,6.00
2022-10-11T22:44:51.139Z,6.87
2022-10-11T22:49:43.670Z,6.90
2022-10-11T22:54:37.510Z,5.80
2022-10-11T22:59:30.004Z,6.60
2022-10-11T23:04:22.616Z,6.60
2022-10-11T23:09:15.140Z,6.60
2022-10-11T23:14:09.015Z,7.90
2022-10-11T23:19:01.488Z,7.53
2022-10-11T23:23:54.551Z,7.80
2022-10-11T23:28:47.175Z,7.17
2022-10-11T23:33:41.183Z,7.50
2022-10-11T23:38:33.684Z,7.20
2022-10-11T23:43:26.183Z,8.10
2022-10-11T23:48:18.692Z,7.70
2022-10-11T23:53:14.276Z,8.20
2022-10-11T23:58:06.833Z,9.13
